Time;durP1;ratioP1;P1;durP2;ratioP2;P2;SDS_P1;SDS_P2;PMS_P1;PMS_P2;Temp;Humidity;BMP_temperature;BMP_pressure;BME280_temperature;BME280_humidity;BME280_pressure;Samples;Min_cycle;Max_cycle;Signal;HPM_P1;HPM_P2
2022/12/13 00:01:37;;;;;;;3.78;3.35;;;;;;;-142.91;100.00;56616.03;4991201;28;20677;-64
2022/12/13 00:04:06;;;;;;;4.13;3.83;;;;;;;-142.91;100.00;56616.03;4991797;28;20258;-64
2022/12/13 00:06:34;;;;;;;3.83;3.63;;;;;;;-142.91;100.00;56616.03;4991643;28;22311;-63
2022/12/13 00:09:03;;;;;;;5.22;4.00;;;;;;;-142.91;100.00;56616.03;4993732;28;20244;-64
2022/12/13 00:11:30;;;;;;;4.63;4.23;;;;;;;-142.91;100.00;56616.03;4991616;28;20986;-63
2022/12/13 00:13:56;;;;;;;4.30;4.00;;;;;;;-142.91;100.00;56616.03;4993785;28;20657;-64
2022/12/13 00:16:25;;;;;;;4.00;3.70;;;;;;;-142.91;100.00;56616.03;4995511;28;20204;-65
2022/12/13 00:18:55;;;;;;;4.23;3.93;;;;;;;-142.91;100.00;56616.03;4991754;28;20219;-63
2022/12/13 00:21:24;;;;;;;4.43;4.13;;;;;;;-142.91;100.00;56616.03;4990558;28;20208;-68
2022/12/13 00:23:51;;;;;;;4.90;4.50;;;;;;;-142.91;100.00;56616.03;4989473;28;20295;-64
2022/12/13 00:26:23;;;;;;;4.90;3.90;;;;;;;-142.91;100.00;56616.03;4992568;28;20298;-63
2022/12/13 00:28:50;;;;;;;4.38;4.07;;;;;;;-142.91;100.00;56616.03;4992619;28;20235;-62
2022/12/13 00:31:17;;;;;;;5.80;5.30;;;;;;;-142.91;100.00;56616.03;4989952;28;20830;-63
2022/12/13 00:33:44;;;;;;;4.63;4.30;;;;;;;-142.91;100.00;56616.03;4990269;28;20972;-64
2022/12/13 00:36:11;;;;;;;5.35;4.85;;;;;;;-142.91;100.00;56616.03;4987419;28;20314;-63
2022/12/13 00:38:38;;;;;;;5.78;5.38;;;;;;;-142.91;100.00;56616.03;4990688;28;20207;-67
2022/12/13 00:41:13;;;;;;;5.45;4.95;;;;;;;-142.91;100.00;56616.03;4990577;28;20203;-64
2022/12/13 00:43:42;;;;;;;6.13;5.63;;;;;;;-142.91;100.00;56616.03;4991016;28;20861;-65
2022/12/13 00:46:13;;;;;;;5.57;5.07;;;;;;;-142.91;100.00;56616.03;4992492;28;20272;-63
2022/12/13 00:48:40;;;;;;;5.65;5.15;;;;;;;-142.91;100.00;56616.03;4986530;28;20321;-64
2022/12/13 00:51:07;;;;;;;5.20;4.70;;;;;;;-142.91;100.00;56616.03;4989685;28;20597;-65
2022/12/13 00:53:34;;;;;;;6.47;5.75;;;;;;;-142.91;100.00;56616.03;4990668;28;20294;-64
2022/12/13 00:56:01;;;;;;;5.63;5.20;;;;;;;-142.91;100.00;56616.03;4992060;28;20264;-64
2022/12/13 00:58:28;;;;;;;9.15;5.80;;;;;;;-142.91;100.00;56616.03;4991223;28;20253;-65
2022/12/13 01:01:04;;;;;;;6.15;5.55;;;;;;;-142.91;100.00;56616.03;4987609;28;20200;-65
2022/12/13 01:03:31;;;;;;;5.67;5.03;;;;;;;-142.91;100.00;56616.03;4991323;28;20234;-64
2022/12/13 01:05:58;;;;;;;6.53;6.07;;;;;;;-142.91;100.00;56616.03;4991264;28;20203;-62
2022/12/13 01:08:26;;;;;;;6.10;5.60;;;;;;;-142.91;100.00;56616.03;4989158;28;20192;-64
2022/12/13 01:10:53;;;;;;;6.57;5.97;;;;;;;-142.91;100.00;56616.03;4988168;28;20203;-63
2022/12/13 01:13:20;;;;;;;5.47;4.97;;;;;;;-142.91;100.00;56616.03;4989221;28;20227;-64
2022/12/13 01:15:47;;;;;;;6.53;5.93;;;;;;;-142.91;100.00;56616.03;4987172;28;20211;-65
2022/12/13 01:18:17;;;;;;;9.73;5.43;;;;;;;-142.91;100.00;56616.03;4988868;28;20633;-63
2022/12/13 01:20:44;;;;;;;5.33;4.83;;;;;;;-142.91;100.00;56616.03;4991843;28;20196;-64
2022/12/13 01:23:11;;;;;;;5.67;5.27;;;;;;;-142.91;100.00;56616.03;4990779;28;20203;-62
2022/12/13 01:25:38;;;;;;;5.97;5.27;;;;;;;-142.91;100.00;56616.03;4991590;28;20208;-62
2022/12/13 01:28:05;;;;;;;5.67;5.17;;;;;;;-142.91;100.00;56616.03;4990119;28;20242;-63
2022/12/13 01:30:31;;;;;;;5.20;4.80;;;;;;;-142.91;100.00;56616.03;4989451;28;20211;-63
2022/12/13 01:32:58;;;;;;;6.87;5.10;;;;;;;-142.91;100.00;56616.03;4991437;28;20231;-64
2022/12/13 01:35:27;;;;;;;5.90;5.40;;;;;;;-142.91;100.00;56616.03;4987968;28;20288;-64
2022/12/13 01:37:54;;;;;;;6.50;5.90;;;;;;;-142.91;100.00;56616.03;4989648;28;22556;-64
2022/12/13 01:40:21;;;;;;;6.22;5.70;;;;;;;-142.91;100.00;56616.03;4991101;28;20208;-65
2022/12/13 01:42:48;;;;;;;6.03;5.50;;;;;;;-142.91;100.00;56616.03;4991873;28;20227;-63
2022/12/13 01:45:23;;;;;;;6.97;6.37;;;;;;;-142.91;100.00;56616.03;4991949;28;20653;-65
2022/12/13 01:47:54;;;;;;;6.80;5.57;;;;;;;-142.91;100.00;56616.03;4990208;28;20244;-64
2022/12/13 01:50:24;;;;;;;8.13;6.50;;;;;;;-142.91;100.00;56616.03;4988951;28;20219;-64
2022/12/13 01:52:56;;;;;;;6.73;6.13;;;;;;;-142.91;100.00;56616.03;4991015;28;20250;-64
2022/12/13 01:55:25;;;;;;;7.53;6.53;;;;;;;-142.91;100.00;56616.03;4991569;28;20235;-65
2022/12/13 01:57:55;;;;;;;7.07;5.33;;;;;;;-142.91;100.00;56616.03;4987718;28;20295;-64
2022/12/13 02:00:22;;;;;;;6.00;5.27;;;;;;;-142.91;100.00;56616.03;4987341;28;20301;-64
2022/12/13 02:02:49;;;;;;;6.37;5.60;;;;;;;-142.91;100.00;56616.03;4990193;28;20286;-64
2022/12/13 02:05:21;;;;;;;7.33;6.63;;;;;;;-142.91;100.00;56616.03;4992656;28;20206;-65
2022/12/13 02:07:49;;;;;;;5.70;5.30;;;;;;;-142.91;100.00;56616.03;4989482;28;20211;-64
2022/12/13 02:10:17;;;;;;;7.40;6.70;;;;;;;-142.91;100.00;56616.03;4990996;28;20235;-64
2022/12/13 02:12:44;;;;;;;7.03;5.83;;;;;;;-142.91;100.00;56616.03;4988737;28;20235;-64
2022/12/13 02:15:14;;;;;;;6.50;5.90;;;;;;;-142.91;100.00;56616.03;4990710;28;20301;-64
2022/12/13 02:17:58;;;;;;;7.25;6.55;;;;;;;-142.91;100.00;56616.03;4986948;28;20216;-65
2022/12/13 02:20:48;;;;;;;6.73;6.13;;;;;;;-142.91;100.00;56616.03;4989438;28;20250;-64
2022/12/13 02:23:49;;;;;;;7.10;5.70;;;;;;;-142.91;100.00;56616.03;4990636;28;20207;-63
2022/12/13 02:26:53;;;;;;;7.53;6.83;;;;;;;-142.91;100.00;56616.03;4990625;28;20270;-64
2022/12/13 02:29:47;;;;;;;6.80;6.20;;;;;;;-142.91;100.00;56616.03;4971371;28;20219;-64
2022/12/13 02:32:22;;;;;;;6.77;6.17;;;;;;;-142.91;100.00;56616.03;4985278;28;20235;-64
2022/12/13 02:34:56;;;;;;;9.23;6.68;;;;;;;-142.91;100.00;56616.03;4989199;28;20238;-64
2022/12/13 02:37:26;;;;;;;7.00;5.80;;;;;;;-142.91;100.00;56616.03;4991977;28;20243;-64
2022/12/13 02:39:58;;;;;;;7.45;6.75;;;;;;;-142.91;100.00;56616.03;4990220;28;20691;-65
2022/12/13 02:42:31;;;;;;;9.27;6.77;;;;;;;-142.91;100.00;56616.03;4991817;28;20204;-64
2022/12/13 02:45:05;;;;;;;6.60;5.82;;;;;;;-142.91;100.00;56616.03;4990808;28;20200;-64
2022/12/13 02:47:35;;;;;;;7.63;6.75;;;;;;;-142.91;100.00;56616.03;4989580;28;20397;-63
2022/12/13 02:50:06;;;;;;;7.55;6.75;;;;;;;-142.91;100.00;56616.03;4987359;28;20763;-63
2022/12/13 02:52:33;;;;;;;8.77;7.10;;;;;;;-142.91;100.00;56616.03;4991721;28;20262;-64
2022/12/13 02:55:00;;;;;;;7.43;6.77;;;;;;;-142.91;100.00;56616.03;4988175;28;20231;-62
2022/12/13 02:57:30;;;;;;;8.80;7.73;;;;;;;-142.91;100.00;56616.03;4988182;28;20293;-63
2022/12/13 03:00:00;;;;;;;8.03;7.27;;;;;;;-142.91;100.00;56616.03;4992554;28;20218;-65
2022/12/13 03:02:42;;;;;;;10.43;7.37;;;;;;;-142.91;100.00;56616.03;4992296;28;20263;-64
2022/12/13 03:08:18;;;;;;;7.73;6.97;;;;;;;-142.91;100.00;56616.03;4990368;28;20214;-64
2022/12/13 03:10:55;;;;;;;8.02;7.20;;;;;;;-142.91;100.00;56616.03;4991001;28;20215;-63
2022/12/13 03:13:36;;;;;;;12.73;7.43;;;;;;;-142.91;100.00;56616.03;4992196;28;20901;-65
2022/12/13 03:16:09;;;;;;;9.33;7.93;;;;;;;-142.91;100.00;56616.03;4995864;28;20342;-64
2022/12/13 03:18:39;;;;;;;15.43;9.90;;;;;;;-142.91;100.00;56616.03;4995152;28;20286;-65
2022/12/13 03:21:08;;;;;;;11.20;8.10;;;;;;;-142.91;100.00;56616.03;4990949;28;20212;-66
2022/12/13 03:23:36;;;;;;;9.75;7.18;;;;;;;-142.91;100.00;56616.03;4989375;28;21448;-64
2022/12/13 03:26:06;;;;;;;7.53;6.70;;;;;;;-142.91;100.00;56616.03;4991283;28;20212;-67
2022/12/13 03:28:33;;;;;;;7.88;7.13;;;;;;;-142.91;100.00;56616.03;4994044;28;21707;-62
2022/12/13 03:31:00;;;;;;;7.47;6.40;;;;;;;-142.91;100.00;56616.03;4993239;28;21352;-64
2022/12/13 03:33:27;;;;;;;9.43;7.83;;;;;;;-142.91;100.00;56616.03;4994387;28;20259;-63
2022/12/13 03:35:55;;;;;;;16.80;11.23;;;;;;;-142.91;100.00;56616.03;4993644;28;20269;-65
2022/12/13 03:38:22;;;;;;;9.45;8.15;;;;;;;-142.91;100.00;56616.03;4993431;28;20203;-63
2022/12/13 03:40:50;;;;;;;9.48;8.45;;;;;;;-142.91;100.00;56616.03;4993096;28;20682;-63
2022/12/13 03:43:17;;;;;;;10.30;8.33;;;;;;;-142.91;100.00;56616.03;4993779;28;20192;-63
2022/12/13 03:45:44;;;;;;;9.10;8.17;;;;;;;-142.91;100.00;56616.03;4992387;28;20964;-62
2022/12/13 03:48:11;;;;;;;10.30;8.97;;;;;;;-142.91;100.00;56616.03;4993131;28;20203;-64
2022/12/13 03:50:37;;;;;;;10.83;8.67;;;;;;;-142.91;100.00;56616.03;4993201;28;20207;-63
2022/12/13 03:53:05;;;;;;;8.83;7.47;;;;;;;-142.91;100.00;56616.03;4992713;28;20788;-63
2022/12/13 03:55:32;;;;;;;8.47;7.70;;;;;;;-142.91;100.00;56616.03;4993262;28;20265;-65
2022/12/13 03:57:59;;;;;;;11.70;7.27;;;;;;;-142.91;100.00;56616.03;4994572;28;20297;-64
2022/12/13 04:00:26;;;;;;;8.77;6.73;;;;;;;-142.91;100.00;56616.03;4994738;28;20631;-63
2022/12/13 04:02:52;;;;;;;7.17;6.47;;;;;;;-142.91;100.00;56616.03;4993737;28;20292;-63
2022/12/13 04:05:19;;;;;;;8.37;7.60;;;;;;;-142.91;100.00;56616.03;4993086;28;20211;-63
2022/12/13 04:07:46;;;;;;;8.53;7.47;;;;;;;-142.91;100.00;56616.03;4993278;28;20207;-64
2022/12/13 04:10:14;;;;;;;7.93;7.07;;;;;;;-142.91;100.00;56616.03;4992985;28;20289;-64
2022/12/13 04:15:34;;;;;;;9.13;6.43;;;;;;;-142.91;100.00;56616.03;4960701;28;20241;-63
2022/12/13 04:18:00;;;;;;;7.90;7.10;;;;;;;-142.91;100.00;56616.03;4993571;28;20309;-62
2022/12/13 04:20:27;;;;;;;7.18;6.50;;;;;;;-142.91;100.00;56616.03;4993743;28;22797;-63
2022/12/13 04:22:54;;;;;;;7.90;6.97;;;;;;;-142.91;100.00;56616.03;4993930;28;20211;-64
2022/12/13 04:25:22;;;;;;;7.53;6.82;;;;;;;-142.91;100.00;56616.03;4993805;28;20599;-63
2022/12/13 04:27:49;;;;;;;9.03;7.30;;;;;;;-142.91;100.00;56616.03;4993044;28;20281;-63
2022/12/13 04:30:16;;;;;;;10.17;7.70;;;;;;;-142.91;100.00;56616.03;4991880;28;20285;-62
2022/12/13 04:32:43;;;;;;;10.27;7.20;;;;;;;-142.91;100.00;56616.03;4992341;28;20254;-63
2022/12/13 04:35:10;;;;;;;7.20;6.50;;;;;;;-142.91;100.00;56616.03;4992994;28;20212;-64
2022/12/13 04:37:36;;;;;;;8.37;7.27;;;;;;;-142.91;100.00;56616.03;4992175;28;20269;-63
2022/12/13 04:40:04;;;;;;;9.00;6.78;;;;;;;-142.91;100.00;56616.03;4992769;28;20222;-64
2022/12/13 04:42:32;;;;;;;8.23;7.00;;;;;;;-142.91;100.00;56616.03;4993774;28;20262;-63
2022/12/13 04:44:58;;;;;;;9.13;7.47;;;;;;;-142.91;100.00;56616.03;4992811;28;20211;-63
2022/12/13 04:47:25;;;;;;;8.03;6.50;;;;;;;-142.91;100.00;56616.03;4992432;28;20212;-63
2022/12/13 04:49:52;;;;;;;7.23;6.60;;;;;;;-142.91;100.00;56616.03;4991943;28;20266;-64
2022/12/13 04:52:19;;;;;;;8.87;7.37;;;;;;;-142.91;100.00;56616.03;4992125;28;20736;-62
2022/12/13 04:54:46;;;;;;;8.23;6.87;;;;;;;-142.91;100.00;56616.03;4992903;28;20207;-65
2022/12/13 04:57:13;;;;;;;6.67;6.13;;;;;;;-142.91;100.00;56616.03;4992049;28;20293;-64
2022/12/13 04:59:41;;;;;;;8.03;7.23;;;;;;;-142.91;100.00;56616.03;4991094;28;20237;-63
2022/12/13 05:02:10;;;;;;;11.20;8.00;;;;;;;-142.91;100.00;56616.03;4992144;28;20685;-63
2022/12/13 05:04:36;;;;;;;8.87;7.77;;;;;;;-142.91;100.00;56616.03;4991477;28;20203;-64
2022/12/13 05:07:04;;;;;;;9.67;7.43;;;;;;;-142.91;100.00;56616.03;4992855;28;20264;-63
2022/12/13 05:09:31;;;;;;;8.70;7.37;;;;;;;-142.91;100.00;56616.03;4993984;28;20227;-66
2022/12/13 05:11:58;;;;;;;10.30;7.60;;;;;;;-142.91;100.00;56616.03;4992144;28;20240;-63
2022/12/13 05:14:24;;;;;;;10.10;8.07;;;;;;;-142.91;100.00;56616.03;4993071;28;20246;-63
2022/12/13 05:16:53;;;;;;;8.93;7.67;;;;;;;-142.91;100.00;56616.03;4992755;28;20297;-62
2022/12/13 05:19:19;;;;;;;9.15;7.80;;;;;;;-142.91;100.00;56616.03;4992071;28;20211;-63
2022/12/13 05:21:46;;;;;;;9.63;7.67;;;;;;;-142.91;100.00;56616.03;4990724;28;20211;-61
2022/12/13 05:24:13;;;;;;;9.40;7.47;;;;;;;-142.91;100.00;56616.03;4992116;28;20288;-63
2022/12/13 05:26:40;;;;;;;11.63;8.15;;;;;;;-142.91;100.00;56616.03;4992207;28;20215;-63
2022/12/13 05:29:06;;;;;;;11.50;8.27;;;;;;;-142.91;100.00;56616.03;4991816;28;20208;-64
2022/12/13 05:31:33;;;;;;;36.53;18.67;;;;;;;-142.91;100.00;56616.03;4991626;28;20223;-64
2022/12/13 05:34:01;;;;;;;13.90;10.33;;;;;;;-142.91;100.00;56616.03;4993116;28;20231;-64
2022/12/13 05:36:29;;;;;;;8.07;7.33;;;;;;;-142.91;100.00;56616.03;4991915;28;20290;-64
2022/12/13 05:38:55;;;;;;;9.67;8.60;;;;;;;-142.91;100.00;56616.03;4991529;28;20233;-64
2022/12/13 05:41:24;;;;;;;8.43;7.57;;;;;;;-142.91;100.00;56616.03;4991061;28;20269;-64
2022/12/13 05:43:51;;;;;;;9.83;7.27;;;;;;;-142.91;100.00;56616.03;4991320;28;20207;-63
2022/12/13 05:46:18;;;;;;;9.27;7.40;;;;;;;-142.91;100.00;56616.03;4991072;28;20211;-64
2022/12/13 05:48:45;;;;;;;8.37;7.50;;;;;;;-142.91;100.00;56616.03;4992554;28;20286;-64
2022/12/13 05:51:13;;;;;;;10.17;7.90;;;;;;;-142.91;100.00;56616.03;4990954;28;20669;-64
2022/12/13 05:53:41;;;;;;;10.80;8.70;;;;;;;-142.91;100.00;56616.03;4990761;28;20690;-63
2022/12/13 05:56:09;;;;;;;9.33;7.70;;;;;;;-142.91;100.00;56616.03;4992160;28;20305;-65
2022/12/13 05:58:37;;;;;;;9.60;7.70;;;;;;;-142.91;100.00;56616.03;4991737;28;20862;-63
2022/12/13 06:01:06;;;;;;;12.27;9.20;;;;;;;-142.91;100.00;56616.03;4990807;28;20207;-66
2022/12/13 06:03:33;;;;;;;10.20;8.60;;;;;;;-142.91;100.00;56616.03;4992088;28;21029;-65
2022/12/13 06:06:01;;;;;;;9.40;8.23;;;;;;;-142.91;100.00;56616.03;4993068;28;20249;-64
2022/12/13 06:08:30;;;;;;;11.30;8.50;;;;;;;-142.91;100.00;56616.03;4992569;28;20857;-64
2022/12/13 06:10:59;;;;;;;10.07;7.93;;;;;;;-142.91;100.00;56616.03;4991939;28;20203;-65
2022/12/13 06:13:26;;;;;;;11.83;8.53;;;;;;;-142.91;100.00;56616.03;4991390;28;20246;-64
2022/12/13 06:15:53;;;;;;;10.43;7.80;;;;;;;-142.91;100.00;56616.03;4992893;28;20206;-65
2022/12/13 06:18:20;;;;;;;11.83;8.80;;;;;;;-142.91;100.00;56616.03;4993682;28;20214;-64
2022/12/13 06:20:56;;;;;;;13.07;9.23;;;;;;;-142.91;100.00;56616.03;4990876;28;20208;-67
2022/12/13 06:23:22;;;;;;;9.93;8.80;;;;;;;-142.91;100.00;56616.03;4991984;28;20223;-64
2022/12/13 06:25:51;;;;;;;12.90;8.80;;;;;;;-142.91;100.00;56616.03;4992484;28;20212;-64
2022/12/13 06:28:18;;;;;;;10.73;8.60;;;;;;;-142.91;100.00;56616.03;4991903;28;20227;-65
2022/12/13 06:30:44;;;;;;;10.53;8.40;;;;;;;-142.91;100.00;56616.03;4992110;28;20199;-65
2022/12/13 06:33:11;;;;;;;12.87;9.27;;;;;;;-142.91;100.00;56616.03;4993439;28;20599;-64
2022/12/13 06:35:38;;;;;;;8.17;7.40;;;;;;;-142.91;100.00;56616.03;4994961;28;20207;-63
2022/12/13 06:38:05;;;;;;;12.53;8.47;;;;;;;-142.91;100.00;56616.03;4994971;28;21778;-65
2022/12/13 06:40:32;;;;;;;11.13;8.30;;;;;;;-142.91;100.00;56616.03;4993597;28;20211;-65
2022/12/13 06:43:00;;;;;;;8.90;7.45;;;;;;;-142.91;100.00;56616.03;4996816;28;20203;-64
2022/12/13 06:45:27;;;;;;;11.77;9.10;;;;;;;-142.91;100.00;56616.03;4995658;28;20212;-63
2022/12/13 06:47:55;;;;;;;13.57;9.40;;;;;;;-142.91;100.00;56616.03;4995270;28;20237;-65
2022/12/13 06:50:22;;;;;;;20.17;10.80;;;;;;;-142.91;100.00;56616.03;4994017;28;20219;-65
2022/12/13 06:52:49;;;;;;;12.73;8.97;;;;;;;-142.91;100.00;56616.03;4995518;28;20627;-64
2022/12/13 06:55:19;;;;;;;12.55;9.98;;;;;;;-142.91;100.00;56616.03;4995338;28;20230;-64
2022/12/13 06:57:45;;;;;;;13.07;9.87;;;;;;;-142.91;100.00;56616.03;4995923;28;20215;-64
2022/12/13 07:00:15;;;;;;;11.80;8.63;;;;;;;-142.91;100.00;56616.03;4995450;28;20626;-63
2022/12/13 07:02:41;;;;;;;10.53;8.77;;;;;;;-142.91;100.00;56616.03;4993869;28;20879;-64
2022/12/13 07:05:09;;;;;;;9.13;8.23;;;;;;;-142.91;100.00;56616.03;4994232;28;20215;-63
2022/12/13 07:07:36;;;;;;;10.43;8.75;;;;;;;-142.91;100.00;56616.03;4994750;28;20250;-64
2022/12/13 07:10:03;;;;;;;10.37;9.03;;;;;;;-142.91;100.00;56616.03;4996087;28;20235;-65
2022/12/13 07:12:31;;;;;;;10.00;8.20;;;;;;;-142.91;100.00;56616.03;4994166;28;20827;-64
2022/12/13 07:14:58;;;;;;;12.00;8.70;;;;;;;-142.91;100.00;56616.03;4995855;28;20239;-65
2022/12/13 07:17:26;;;;;;;12.43;8.55;;;;;;;-142.91;100.00;56616.03;4994481;28;20685;-65
2022/12/13 07:19:53;;;;;;;15.80;9.70;;;;;;;-142.91;100.00;56616.03;4996625;28;20211;-64
2022/12/13 07:22:19;;;;;;;10.23;9.23;;;;;;;-142.91;100.00;56616.03;4990584;28;20308;-63
2022/12/13 07:24:46;;;;;;;11.18;8.88;;;;;;;-142.91;100.00;56616.03;4994358;28;20530;-65
2022/12/13 07:27:13;;;;;;;12.25;10.00;;;;;;;-142.91;100.00;56616.03;4994330;28;20207;-63
2022/12/13 07:29:40;;;;;;;12.52;9.95;;;;;;;-142.91;100.00;56616.03;4994178;28;20216;-65
2022/12/13 07:32:06;;;;;;;11.73;9.38;;;;;;;-142.91;100.00;56616.03;4991902;28;20289;-64
2022/12/13 07:34:35;;;;;;;14.60;8.90;;;;;;;-142.91;100.00;56616.03;4995231;28;20230;-64
2022/12/13 07:37:02;;;;;;;11.85;9.93;;;;;;;-142.91;100.00;56616.03;4993948;28;20204;-64
2022/12/13 07:39:31;;;;;;;10.80;9.25;;;;;;;-142.91;100.00;56616.03;4995736;28;20218;-65
2022/12/13 07:41:58;;;;;;;12.90;10.15;;;;;;;-142.91;100.00;56616.03;4992866;28;21008;-65
2022/12/13 07:44:25;;;;;;;15.07;10.23;;;;;;;-142.91;100.00;56616.03;4993135;28;20215;-63
2022/12/13 07:46:52;;;;;;;13.02;10.60;;;;;;;-142.91;100.00;56616.03;4993491;28;20203;-63
2022/12/13 07:49:19;;;;;;;16.83;11.55;;;;;;;-142.91;100.00;56616.03;4993672;28;20465;-64
2022/12/13 07:51:47;;;;;;;13.18;10.35;;;;;;;-142.91;100.00;56616.03;4991018;28;20204;-65
2022/12/13 07:54:14;;;;;;;20.85;11.93;;;;;;;-142.91;100.00;56616.03;4992256;28;20300;-63
2022/12/13 07:56:41;;;;;;;18.52;12.82;;;;;;;-142.91;100.00;56616.03;4994647;28;20208;-65
2022/12/13 07:59:09;;;;;;;30.20;15.02;;;;;;;-142.91;100.00;56616.03;4993445;28;20231;-63
2022/12/13 08:01:36;;;;;;;26.08;14.65;;;;;;;-142.91;100.00;56616.03;4992281;28;20709;-65
2022/12/13 08:04:03;;;;;;;22.20;13.82;;;;;;;-142.91;100.00;56616.03;4992371;28;20296;-64
2022/12/13 08:06:30;;;;;;;12.63;10.85;;;;;;;-142.91;100.00;56616.03;4990762;28;20223;-65
2022/12/13 08:08:58;;;;;;;14.63;10.95;;;;;;;-142.91;100.00;56616.03;4993852;28;20732;-64
2022/12/13 08:11:25;;;;;;;17.52;11.35;;;;;;;-142.91;100.00;56616.03;4992892;28;21084;-64
2022/12/13 08:13:54;;;;;;;25.15;12.25;;;;;;;-142.91;100.00;56616.03;4992565;28;20254;-65
2022/12/13 08:16:21;;;;;;;22.05;14.18;;;;;;;-142.91;100.00;56616.03;4993764;28;20211;-64
2022/12/13 08:18:48;;;;;;;15.77;10.95;;;;;;;-142.91;100.00;56616.03;4993269;28;20207;-64
2022/12/13 08:21:15;;;;;;;14.68;10.27;;;;;;;-142.91;100.00;56616.03;4995447;28;20208;-65
2022/12/13 08:23:42;;;;;;;14.40;9.90;;;;;;;-142.91;100.00;56616.03;4993535;28;20755;-64
2022/12/13 08:26:10;;;;;;;13.07;9.77;;;;;;;-142.91;100.00;56616.03;4994164;28;20335;-63
2022/12/13 08:28:37;;;;;;;15.23;10.40;;;;;;;-142.91;100.00;56616.03;4993054;28;20203;-63
2022/12/13 08:31:06;;;;;;;14.50;8.70;;;;;;;-142.91;100.00;56616.03;4993274;28;20697;-64
2022/12/13 08:33:33;;;;;;;11.60;9.23;;;;;;;-142.91;100.00;56616.03;4992599;28;20251;-65
2022/12/13 08:36:08;;;;;;;13.70;9.18;;;;;;;-142.91;100.00;56616.03;4992886;28;20192;-65
2022/12/13 08:38:35;;;;;;;10.32;8.80;;;;;;;-142.91;100.00;56616.03;4992529;28;20308;-65
2022/12/13 08:41:02;;;;;;;12.38;8.32;;;;;;;-142.91;100.00;56616.03;4993697;28;20217;-65
2022/12/13 08:43:30;;;;;;;10.50;8.55;;;;;;;-142.91;100.00;56616.03;4993849;28;20593;-65
2022/12/13 08:45:57;;;;;;;9.98;8.82;;;;;;;-142.91;100.00;56616.03;4992771;28;20239;-64
2022/12/13 08:48:23;;;;;;;8.00;7.22;;;;;;;-142.91;100.00;56616.03;4992528;28;20207;-63
2022/12/13 08:50:50;;;;;;;9.13;7.28;;;;;;;-142.91;100.00;56616.03;4992544;28;20204;-64
2022/12/13 08:53:17;;;;;;;8.43;7.63;;;;;;;-142.91;100.00;56616.03;4992394;28;20576;-64
2022/12/13 08:55:44;;;;;;;10.15;7.25;;;;;;;-142.91;100.00;56616.03;4992524;28;20203;-64
2022/12/13 08:58:11;;;;;;;7.35;6.38;;;;;;;-142.91;100.00;56616.03;4992120;28;20200;-66
2022/12/13 09:00:39;;;;;;;7.80;6.93;;;;;;;-142.91;100.00;56616.03;4992509;28;20622;-64
2022/12/13 09:03:09;;;;;;;7.78;6.82;;;;;;;-142.91;100.00;56616.03;4992550;28;20218;-65
2022/12/13 09:05:36;;;;;;;7.38;6.68;;;;;;;-142.91;100.00;56616.03;4992447;28;20645;-65
2022/12/13 09:08:05;;;;;;;7.80;6.68;;;;;;;-142.91;100.00;56616.03;4992777;28;20670;-63
2022/12/13 09:10:32;;;;;;;22.20;7.00;;;;;;;-142.91;100.00;56616.03;4992562;28;20313;-67
2022/12/13 09:12:59;;;;;;;7.63;6.70;;;;;;;-142.91;100.00;56616.03;4992420;28;20646;-64
2022/12/13 09:15:27;;;;;;;9.13;7.03;;;;;;;-142.91;100.00;56616.03;4996118;28;20227;-65
2022/12/13 09:17:56;;;;;;;10.23;7.47;;;;;;;-142.91;100.00;56616.03;4996694;28;20200;-66
2022/12/13 09:20:23;;;;;;;9.27;7.38;;;;;;;-142.91;100.00;56616.03;4995192;28;20231;-65
2022/12/13 09:22:49;;;;;;;8.05;7.35;;;;;;;-142.91;100.00;56616.03;4994494;28;20665;-67
2022/12/13 09:25:16;;;;;;;7.38;6.55;;;;;;;-142.91;100.00;56616.03;4997352;28;20235;-64
2022/12/13 09:27:43;;;;;;;7.20;6.50;;;;;;;-142.91;100.00;56616.03;4993186;28;20660;-64
2022/12/13 09:30:12;;;;;;;8.38;5.72;;;;;;;-142.91;100.00;56616.03;4994434;28;20207;-65
2022/12/13 09:32:40;;;;;;;6.30;5.60;;;;;;;-142.91;100.00;56616.03;4992119;28;20289;-65
2022/12/13 09:35:09;;;;;;;6.20;5.70;;;;;;;-142.91;100.00;56616.03;4992542;28;20227;-64
2022/12/13 09:37:36;;;;;;;6.00;5.43;;;;;;;-142.91;100.00;56616.03;4993135;28;20210;-64
2022/12/13 09:40:03;;;;;;;8.73;5.75;;;;;;;-142.91;100.00;56616.03;4992480;28;20208;-63
2022/12/13 09:42:33;;;;;;;6.20;5.60;;;;;;;-142.91;100.00;56616.03;4991763;28;20205;-63
2022/12/13 09:45:03;;;;;;;6.25;5.75;;;;;;;-142.91;100.00;56616.03;4992288;28;20227;-63
2022/12/13 09:47:33;;;;;;;5.80;5.30;;;;;;;-142.91;100.00;56616.03;4991625;28;20207;-66
2022/12/13 09:50:05;;;;;;;7.13;5.90;;;;;;;-142.91;100.00;56616.03;4992829;28;20211;-63
2022/12/13 09:52:38;;;;;;;7.72;6.18;;;;;;;-142.91;100.00;56616.03;4991433;28;21497;-63
2022/12/13 09:55:20;;;;;;;5.95;5.45;;;;;;;-142.91;100.00;56616.03;4991352;28;20281;-63
2022/12/13 09:57:47;;;;;;;5.90;5.47;;;;;;;-142.91;100.00;56616.03;4989925;28;20209;-64
2022/12/13 10:00:17;;;;;;;8.55;6.57;;;;;;;-142.91;100.00;56616.03;4991096;28;20211;-64
2022/12/13 10:02:46;;;;;;;6.28;5.68;;;;;;;-142.91;100.00;56616.03;4991814;28;20203;-65
2022/12/13 10:05:21;;;;;;;7.70;6.20;;;;;;;-142.91;100.00;56616.03;4991774;28;20208;-63
2022/12/13 10:07:50;;;;;;;9.45;6.28;;;;;;;-142.91;100.00;56616.03;4993408;28;20294;-64
2022/12/13 10:10:17;;;;;;;6.10;5.60;;;;;;;-142.91;100.00;56616.03;4995027;28;20241;-64
2022/12/13 10:12:50;;;;;;;6.43;5.82;;;;;;;-142.91;100.00;56616.03;4996251;28;20213;-63
2022/12/13 10:15:20;;;;;;;7.55;6.50;;;;;;;-142.91;100.00;56616.03;4997074;28;20238;-64
2022/12/13 10:17:49;;;;;;;12.68;7.60;;;;;;;-142.91;100.00;56616.03;4995332;28;20211;-64
2022/12/13 10:20:19;;;;;;;7.70;6.80;;;;;;;-142.91;100.00;56616.03;4995401;28;20293;-63
2022/12/13 10:22:46;;;;;;;7.28;6.55;;;;;;;-142.91;100.00;56616.03;4997205;28;20199;-62
2022/12/13 10:25:15;;;;;;;6.82;6.13;;;;;;;-142.91;100.00;56616.03;4996229;28;20289;-64
2022/12/13 10:27:44;;;;;;;5.47;4.97;;;;;;;-142.91;100.00;56616.03;4993668;28;20302;-63
2022/12/13 10:30:13;;;;;;;5.30;4.80;;;;;;;-142.91;100.00;56616.03;4995406;28;20208;-64
2022/12/13 10:32:49;;;;;;;5.50;5.00;;;;;;;-142.91;100.00;56616.03;4995570;28;20289;-64
2022/12/13 10:35:24;;;;;;;5.80;5.40;;;;;;;-142.91;100.00;56616.03;4993644;28;20235;-64
2022/12/13 10:37:51;;;;;;;6.38;5.88;;;;;;;-142.91;100.00;56616.03;4993844;28;20207;-64
2022/12/13 10:40:32;;;;;;;6.45;5.85;;;;;;;-142.91;100.00;56616.03;4994991;28;20212;-63
2022/12/13 10:43:13;;;;;;;6.88;4.97;;;;;;;-142.91;100.00;56616.03;4996355;28;20203;-63
2022/12/13 10:45:41;;;;;;;5.85;5.35;;;;;;;-142.91;100.00;56616.03;4994946;28;20218;-63
2022/12/13 10:48:19;;;;;;;7.15;5.22;;;;;;;-142.91;100.00;56616.03;4993908;28;20337;-64
2022/12/13 10:50:57;;;;;;;10.25;6.47;;;;;;;-142.91;100.00;56616.03;4995901;28;20218;-64
2022/12/13 10:53:29;;;;;;;6.32;5.72;;;;;;;-142.91;100.00;56616.03;4993893;28;20396;-64
2022/12/13 10:55:58;;;;;;;6.72;5.32;;;;;;;-142.91;100.00;56616.03;4994647;28;20232;-65
2022/12/13 10:58:35;;;;;;;6.00;5.50;;;;;;;-142.91;100.00;56616.03;4993428;28;20575;-65
2022/12/13 11:01:11;;;;;;;6.57;5.25;;;;;;;-142.91;100.00;56616.03;4995706;28;20218;-64
2022/12/13 11:03:38;;;;;;;5.80;4.93;;;;;;;-142.91;100.00;56616.03;4994533;28;20210;-64
2022/12/13 11:06:07;;;;;;;7.80;5.97;;;;;;;-142.91;100.00;56616.03;4990968;28;20960;-64
2022/12/13 11:08:34;;;;;;;8.45;6.78;;;;;;;-142.91;100.00;56616.03;4992787;28;20247;-64
2022/12/13 11:11:04;;;;;;;8.50;6.72;;;;;;;-142.91;100.00;56616.03;4994914;28;20222;-64
2022/12/13 11:13:37;;;;;;;5.85;5.35;;;;;;;-142.91;100.00;56616.03;4994803;28;20207;-64
2022/12/13 11:16:16;;;;;;;5.65;5.20;;;;;;;-142.91;100.00;56616.03;4995593;28;20232;-64
2022/12/13 11:18:43;;;;;;;6.13;5.53;;;;;;;-142.91;100.00;56616.03;4994091;28;20293;-64
2022/12/13 11:21:10;;;;;;;5.80;4.90;;;;;;;-142.91;100.00;56616.03;4995194;28;20212;-64